Time;durP1;ratioP1;P1;durP2;ratioP2;P2;SDS_P1;SDS_P2;PMS_P1;PMS_P2;Temp;Humidity;BMP_temperature;BMP_pressure;BME280_temperature;BME280_humidity;BME280_pressure;Samples;Min_cycle;Max_cycle;Signal;HPM_P1;HPM_P2
2021/11/15 00:01:41;;;;;;;38.90;21.95;;;;;;;-0.43;80.71;98453.28;1689151;85;21033;-81
2021/11/15 00:04:02;;;;;;;40.90;21.93;;;;;;;-0.46;80.91;98453.23;1689983;83;21033;-81
2021/11/15 00:06:29;;;;;;;49.63;23.67;;;;;;;-0.49;80.95;98454.05;1692302;85;21033;-81
2021/11/15 00:08:57;;;;;;;44.15;23.02;;;;;;;-0.49;80.75;98457.95;1670610;85;21125;-81
2021/11/15 00:11:26;;;;;;;47.45;23.00;;;;;;;-0.52;81.08;98455.68;1692645;84;21114;-82
2021/11/15 00:13:52;;;;;;;42.80;22.15;;;;;;;-0.51;81.03;98458.33;1692387;85;21061;-81
2021/11/15 00:16:21;;;;;;;39.55;22.52;;;;;;;-0.52;80.65;98463.49;1692239;85;21072;-81
2021/11/15 00:18:49;;;;;;;42.85;22.25;;;;;;;-0.60;80.81;98464.22;1691984;85;21442;-79
2021/11/15 00:21:16;;;;;;;44.10;21.50;;;;;;;-0.60;80.95;98460.31;1688493;85;21060;-79
2021/11/15 00:23:42;;;;;;;41.40;21.90;;;;;;;-0.61;80.99;98457.67;1688499;85;21016;-78
2021/11/15 00:26:10;;;;;;;40.73;22.82;;;;;;;-0.62;81.12;98462.42;1688285;85;21037;-81
2021/11/15 00:28:38;;;;;;;45.03;22.77;;;;;;;-0.61;80.95;98463.77;1668628;85;20954;-79
2021/11/15 00:31:09;;;;;;;45.03;22.60;;;;;;;-0.63;80.95;98468.48;1674715;84;21042;-79
2021/11/15 00:33:35;;;;;;;41.70;21.75;;;;;;;-0.66;80.95;98465.38;1695061;84;21028;-77
2021/11/15 00:36:03;;;;;;;43.25;21.48;;;;;;;-0.63;81.18;98469.34;1691825;84;21009;-80
2021/11/15 00:38:29;;;;;;;45.30;23.18;;;;;;;-0.64;81.04;98466.28;1689856;84;21005;-80
2021/11/15 00:40:56;;;;;;;44.00;22.82;;;;;;;-0.66;80.97;98475.80;1689836;85;21052;-79
2021/11/15 00:43:23;;;;;;;42.75;21.85;;;;;;;-0.65;81.06;98479.27;1689735;85;21399;-78
2021/11/15 00:45:49;;;;;;;42.20;23.38;;;;;;;-0.71;81.12;98477.41;1691353;83;20990;-78
2021/11/15 00:48:16;;;;;;;40.15;21.97;;;;;;;-0.71;81.26;98473.06;1692787;85;21472;-78
2021/11/15 00:50:42;;;;;;;48.08;24.02;;;;;;;-0.73;81.14;98481.28;1692572;85;21062;-78
2021/11/15 00:53:09;;;;;;;45.17;23.73;;;;;;;-0.77;81.24;98480.74;1692496;85;21041;-78
2021/11/15 00:55:36;;;;;;;44.77;23.75;;;;;;;-0.76;81.20;98480.30;1692458;84;22224;-78
2021/11/15 00:58:06;;;;;;;36.80;21.40;;;;;;;-0.75;82.12;98488.59;1690996;85;21466;-78
2021/11/15 01:00:37;;;;;;;41.50;21.70;;;;;;;-0.72;81.65;98479.13;1689974;85;21081;-78
2021/11/15 01:03:07;;;;;;;43.73;21.23;;;;;;;-0.72;81.47;98479.13;1690110;85;21037;-78
2021/11/15 01:05:36;;;;;;;39.75;22.25;;;;;;;-0.73;81.55;98490.39;1691002;85;20995;-78
2021/11/15 01:08:04;;;;;;;47.13;23.32;;;;;;;-0.74;82.04;98487.34;1692807;85;21491;-78
2021/11/15 01:10:34;;;;;;;42.67;23.00;;;;;;;-0.73;81.71;98494.30;1692722;85;21037;-78
2021/11/15 01:13:01;;;;;;;43.50;22.60;;;;;;;-0.79;81.77;98491.52;1694685;85;21040;-78
2021/11/15 01:15:30;;;;;;;41.68;22.37;;;;;;;-0.77;81.99;98484.64;1696473;84;21505;-78
2021/11/15 01:17:58;;;;;;;39.53;21.52;;;;;;;-0.74;81.70;98492.54;1696595;83;21068;-78
2021/11/15 01:20:31;;;;;;;43.38;23.75;;;;;;;-0.78;81.56;98481.59;1693964;85;21092;-78
2021/11/15 01:22:59;;;;;;;43.13;21.85;;;;;;;-0.77;81.82;98475.95;1696044;85;21009;-78
2021/11/15 01:25:27;;;;;;;39.08;20.88;;;;;;;-0.78;81.85;98480.70;1696774;85;21100;-78
2021/11/15 01:27:55;;;;;;;42.55;21.80;;;;;;;-0.84;81.60;98479.71;1696207;85;21009;-78
2021/11/15 01:30:27;;;;;;;43.80;22.77;;;;;;;-0.85;81.56;98480.56;1696483;85;21040;-78
2021/11/15 01:32:55;;;;;;;40.65;20.97;;;;;;;-0.88;81.64;98478.31;1696491;85;21419;-78
2021/11/15 01:35:25;;;;;;;47.67;22.17;;;;;;;-0.85;81.67;98474.47;1695910;85;21036;-78
2021/11/15 01:37:53;;;;;;;37.30;21.42;;;;;;;-0.87;81.50;98478.77;1696413;85;21060;-78
2021/11/15 01:40:25;;;;;;;42.17;22.87;;;;;;;-0.93;81.47;98480.79;1696478;84;20993;-78
2021/11/15 01:42:52;;;;;;;40.98;21.12;;;;;;;-0.95;81.54;98480.74;1688631;83;21076;-78
2021/11/15 01:45:24;;;;;;;42.40;21.97;;;;;;;-0.98;81.70;98480.69;1696732;85;20961;-78
2021/11/15 01:47:58;;;;;;;42.33;21.80;;;;;;;-1.00;81.78;98473.69;1696470;85;21070;-78
2021/11/15 01:50:27;;;;;;;42.60;21.75;;;;;;;-1.00;81.94;98482.80;1696475;85;21077;-78
2021/11/15 01:52:57;;;;;;;40.88;21.68;;;;;;;-1.04;81.90;98476.61;1687606;85;21029;-78
2021/11/15 01:55:26;;;;;;;42.38;19.82;;;;;;;-1.04;81.80;98481.81;1667014;86;21029;-77
2021/11/15 01:57:54;;;;;;;42.38;21.33;;;;;;;-1.05;82.13;98481.36;1666972;86;21045;-78
2021/11/15 02:00:29;;;;;;;41.35;21.73;;;;;;;-1.07;82.15;98493.47;1666881;86;21951;-78
2021/11/15 02:02:58;;;;;;;41.33;20.10;;;;;;;-1.07;81.98;98483.06;1665863;86;21064;-78
2021/11/15 02:05:25;;;;;;;43.52;21.75;;;;;;;-1.10;81.91;98486.88;1668862;84;21173;-78
2021/11/15 02:07:52;;;;;;;45.52;21.77;;;;;;;-1.10;82.52;98487.77;1668530;83;21064;-78
2021/11/15 02:10:21;;;;;;;38.50;20.75;;;;;;;-1.07;82.29;98492.16;1696197;85;21448;-78
2021/11/15 02:12:51;;;;;;;43.45;20.82;;;;;;;-1.09;82.30;98490.83;1696112;84;21058;-78
2021/11/15 02:15:18;;;;;;;37.83;19.73;;;;;;;-1.09;81.92;98496.43;1682204;85;21538;-78
2021/11/15 02:17:48;;;;;;;36.28;19.35;;;;;;;-1.14;81.88;98496.33;1666983;86;21487;-78
2021/11/15 02:20:20;;;;;;;38.63;20.43;;;;;;;-1.17;81.98;98501.88;1666882;86;21159;-78
2021/11/15 02:22:51;;;;;;;36.20;20.17;;;;;;;-1.17;82.03;98497.54;1666710;86;21562;-78
2021/11/15 02:25:23;;;;;;;40.00;19.90;;;;;;;-1.20;82.03;98498.78;1667066;86;21112;-78
2021/11/15 02:27:52;;;;;;;38.67;20.05;;;;;;;-1.22;82.14;98496.55;1684920;85;21052;-78
2021/11/15 02:30:24;;;;;;;36.35;19.07;;;;;;;-1.24;82.26;98491.73;1696411;85;21048;-78
2021/11/15 02:32:51;;;;;;;36.28;18.90;;;;;;;-1.27;82.33;98498.15;1696297;85;21127;-79
2021/11/15 02:35:19;;;;;;;35.80;18.57;;;;;;;-1.27;82.22;98496.44;1691286;84;21481;-78
2021/11/15 02:37:47;;;;;;;37.88;18.73;;;;;;;-1.29;82.24;98502.00;1676037;85;21497;-78
2021/11/15 02:40:18;;;;;;;33.50;18.32;;;;;;;-1.33;82.30;98503.66;1696503;84;21035;-78
2021/11/15 02:42:47;;;;;;;31.25;17.52;;;;;;;-1.34;82.22;98509.70;1696535;85;21036;-78
2021/11/15 02:45:16;;;;;;;34.70;17.90;;;;;;;-1.37;82.24;98515.25;1695596;84;20992;-78
2021/11/15 02:47:46;;;;;;;35.25;18.45;;;;;;;-1.39;82.37;98519.50;1696496;84;21029;-78
2021/11/15 02:50:18;;;;;;;34.45;17.85;;;;;;;-1.39;82.39;98519.50;1696186;85;21056;-79
2021/11/15 02:52:52;;;;;;;32.53;17.40;;;;;;;-1.41;82.53;98512.09;1696061;83;21467;-78
2021/11/15 02:55:21;;;;;;;34.75;17.27;;;;;;;-1.42;82.44;98516.41;1696142;84;21053;-78
2021/11/15 02:57:47;;;;;;;34.58;17.67;;;;;;;-1.44;82.55;98515.91;1681212;85;21013;-78
2021/11/15 03:00:34;;;;;;;38.42;18.62;;;;;;;-1.45;82.47;98516.34;1667302;85;21429;-78
2021/11/15 03:03:04;;;;;;;31.68;17.80;;;;;;;-1.46;82.38;98521.95;1666751;86;21053;-78
2021/11/15 03:05:36;;;;;;;31.93;17.12;;;;;;;-1.48;82.58;98511.05;1667005;86;21040;-78
2021/11/15 03:08:05;;;;;;;31.90;17.25;;;;;;;-1.49;82.64;98519.25;1667014;86;21549;-78
2021/11/15 03:10:34;;;;;;;36.17;18.98;;;;;;;-1.50;82.44;98521.84;1692282;85;21090;-78
2021/11/15 03:13:03;;;;;;;38.23;19.15;;;;;;;-1.54;82.56;98527.79;1695782;84;21068;-78
2021/11/15 03:15:40;;;;;;;36.75;18.80;;;;;;;-1.57;82.56;98527.28;1694236;85;21569;-77
2021/11/15 03:18:15;;;;;;;36.05;17.45;;;;;;;-1.58;82.62;98526.80;1689330;83;21080;-77
2021/11/15 03:20:54;;;;;;;30.70;17.87;;;;;;;-1.60;82.76;98538.88;1678931;85;20977;-78
2021/11/15 03:23:25;;;;;;;30.95;16.60;;;;;;;-1.60;82.66;98534.98;1693848;85;21052;-77
2021/11/15 03:28:47;;;;;;;29.98;17.30;;;;;;;-1.61;82.83;98548.39;1640137;86;22260;-78
2021/11/15 03:31:24;;;;;;;31.07;15.93;;;;;;;-1.63;82.98;98549.19;1669759;86;21036;-78
2021/11/15 03:33:56;;;;;;;36.20;17.80;;;;;;;-1.65;82.88;98557.37;1669307;86;20989;-77
2021/11/15 03:36:23;;;;;;;38.53;17.80;;;;;;;-1.66;82.79;98555.17;1669414;86;21013;-78
2021/11/15 03:38:52;;;;;;;36.80;18.32;;;;;;;-1.70;82.91;98554.66;1669362;86;21092;-78
2021/11/15 03:41:19;;;;;;;31.70;17.92;;;;;;;-1.69;83.01;98552.52;1669300;86;21057;-78
2021/11/15 03:43:46;;;;;;;33.42;17.40;;;;;;;-1.71;82.98;98547.67;1660871;85;21052;-80
2021/11/15 03:46:15;;;;;;;31.00;17.70;;;;;;;-1.72;83.03;98557.61;1669650;86;21012;-78
2021/11/15 03:48:42;;;;;;;32.55;18.17;;;;;;;-1.73;83.24;98555.85;1670082;86;21028;-78
2021/11/15 03:51:09;;;;;;;34.23;18.30;;;;;;;-1.74;83.16;98554.09;1669926;86;21072;-77
2021/11/15 03:53:40;;;;;;;41.25;18.15;;;;;;;-1.74;83.25;98560.59;1666335;85;21076;-78
2021/11/15 03:56:11;;;;;;;34.78;17.23;;;;;;;-1.74;83.27;98548.91;1668729;86;21048;-77
2021/11/15 03:58:41;;;;;;;36.85;18.45;;;;;;;-1.77;83.12;98554.00;1669836;86;21033;-77
2021/11/15 04:01:10;;;;;;;35.75;17.90;;;;;;;-1.76;83.24;98551.45;1669839;86;20976;-78
2021/11/15 04:03:39;;;;;;;34.73;17.75;;;;;;;-1.74;83.26;98553.66;1669207;86;21064;-78
2021/11/15 04:06:12;;;;;;;31.52;17.73;;;;;;;-1.73;83.26;98560.61;1639944;86;21036;-77
2021/11/15 04:08:41;;;;;;;32.28;17.87;;;;;;;-1.69;83.11;98546.42;1658400;84;21052;-78
2021/11/15 04:11:09;;;;;;;35.28;17.05;;;;;;;-1.69;83.28;98556.41;1651051;86;21096;-78
2021/11/15 04:13:40;;;;;;;34.95;17.42;;;;;;;-1.68;83.44;98563.77;1642754;87;21231;-78
2021/11/15 04:16:11;;;;;;;32.40;16.62;;;;;;;-1.74;83.14;98561.89;1656418;86;21009;-78
2021/11/15 04:18:49;;;;;;;32.28;16.85;;;;;;;-1.77;83.45;98557.49;1668370;86;21077;-78
2021/11/15 04:21:20;;;;;;;37.30;19.05;;;;;;;-1.77;83.24;98552.70;1668536;86;21016;-79
2021/11/15 04:23:47;;;;;;;30.37;16.60;;;;;;;-1.77;83.26;98551.41;1667312;86;21045;-78
2021/11/15 04:26:14;;;;;;;34.00;17.98;;;;;;;-1.80;83.27;98561.28;1668372;86;21081;-79
2021/11/15 04:28:40;;;;;;;32.20;16.95;;;;;;;-1.79;83.10;98564.78;1690864;83;21117;-79
2021/11/15 04:31:07;;;;;;;31.90;17.82;;;;;;;-1.86;83.17;98564.58;1668540;86;21155;-79
2021/11/15 04:33:34;;;;;;;31.80;17.37;;;;;;;-1.88;83.19;98561.47;1675818;83;20969;-79
2021/11/15 04:36:01;;;;;;;35.15;18.45;;;;;;;-1.90;83.21;98559.27;1691976;84;21040;-79
2021/11/15 04:38:27;;;;;;;32.80;17.92;;;;;;;-1.93;83.33;98560.05;1671498;84;21020;-79
2021/11/15 04:40:54;;;;;;;42.62;19.55;;;;;;;-1.94;83.16;98566.09;1695455;84;21000;-79
2021/11/15 04:43:21;;;;;;;39.38;19.75;;;;;;;-1.99;83.29;98572.87;1696377;84;21080;-79
2021/11/15 04:45:48;;;;;;;40.48;20.15;;;;;;;-2.02;83.33;98576.66;1691780;85;21082;-79
2021/11/15 04:48:15;;;;;;;37.88;18.35;;;;;;;-2.00;83.31;98578.88;1662879;86;21102;-79
2021/11/15 04:50:43;;;;;;;41.55;20.23;;;;;;;-2.02;83.75;98579.25;1662853;86;21050;-78
2021/11/15 04:53:10;;;;;;;36.73;18.07;;;;;;;-2.01;83.60;98587.51;1658183;85;21011;-77
2021/11/15 04:55:38;;;;;;;40.48;19.17;;;;;;;-2.01;83.56;98585.80;1659505;86;21028;-78
2021/11/15 04:58:06;;;;;;;36.25;19.48;;;;;;;-2.02;83.60;98582.75;1658253;86;20997;-77
2021/11/15 05:00:36;;;;;;;38.00;20.52;;;;;;;-2.02;83.72;98584.05;1685149;85;21414;-78
2021/11/15 05:03:03;;;;;;;38.60;20.97;;;;;;;-2.02;83.68;98583.16;1697818;84;21050;-79
2021/11/15 05:05:30;;;;;;;43.15;21.50;;;;;;;-2.05;83.62;98585.24;1713456;84;21026;-79
2021/11/15 05:07:57;;;;;;;41.45;21.68;;;;;;;-2.05;83.65;98588.24;1686875;84;20975;-79
2021/11/15 05:10:27;;;;;;;42.70;20.92;;;;;;;-2.08;83.83;98591.63;1713790;84;21050;-79
2021/11/15 05:12:56;;;;;;;40.52;21.60;;;;;;;-2.06;83.90;98582.19;1713794;84;21026;-79
2021/11/15 05:15:24;;;;;;;38.08;19.30;;;;;;;-2.05;83.85;98596.93;1709234;84;21005;-79
2021/11/15 05:17:52;;;;;;;38.60;19.57;;;;;;;-2.07;83.88;98606.81;1693783;85;21466;-79
2021/11/15 05:20:20;;;;;;;35.83;18.52;;;;;;;-2.05;83.79;98605.13;1663030;86;21058;-79
2021/11/15 05:22:48;;;;;;;40.67;18.25;;;;;;;-2.08;83.95;98612.41;1659530;85;21031;-79
2021/11/15 05:25:16;;;;;;;30.40;16.32;;;;;;;-2.05;83.94;98612.92;1651900;86;21046;-79
2021/11/15 05:27:43;;;;;;;31.25;16.62;;;;;;;-2.03;83.93;98612.57;1660645;85;20989;-79
2021/11/15 05:30:14;;;;;;;33.95;16.52;;;;;;;-2.07;84.10;98610.30;1652207;85;21033;-79
2021/11/15 05:32:40;;;;;;;31.82;16.57;;;;;;;-2.05;84.04;98609.92;1677722;85;21175;-79
2021/11/15 05:35:08;;;;;;;33.60;19.00;;;;;;;-2.04;84.03;98611.67;1677772;85;21041;-79
2021/11/15 05:37:36;;;;;;;35.40;18.67;;;;;;;-2.05;84.13;98615.52;1677769;85;21008;-79
2021/11/15 05:40:07;;;;;;;31.65;17.92;;;;;;;-2.02;84.07;98620.81;1678597;85;21106;-80
2021/11/15 05:42:34;;;;;;;35.40;18.00;;;;;;;-2.02;84.17;98619.12;1677735;85;21052;-79
2021/11/15 05:45:01;;;;;;;35.03;18.10;;;;;;;-2.03;84.17;98640.70;1677850;85;21021;-79
2021/11/15 05:47:27;;;;;;;40.50;19.82;;;;;;;-2.03;84.18;98625.12;1674704;85;21056;-78
2021/11/15 05:49:54;;;;;;;36.75;19.20;;;;;;;-2.04;84.23;98635.48;1663443;86;21477;-79
2021/11/15 05:52:23;;;;;;;35.55;19.10;;;;;;;-2.03;84.31;98642.00;1678261;85;21051;-79
2021/11/15 05:54:50;;;;;;;38.30;21.35;;;;;;;-2.00;84.73;98642.52;1675178;86;21040;-79
2021/11/15 05:57:18;;;;;;;49.58;24.85;;;;;;;-1.99;84.41;98646.91;1677972;85;21072;-79
2021/11/15 05:59:45;;;;;;;47.90;24.47;;;;;;;-1.95;84.41;98650.03;1674756;84;21060;-79
2021/11/15 06:02:12;;;;;;;53.30;24.65;;;;;;;-1.93;84.55;98650.98;1662695;85;21091;-79
2021/11/15 06:04:38;;;;;;;59.63;31.62;;;;;;;-1.90;84.59;98652.39;1674811;85;21040;-79
2021/11/15 06:07:05;;;;;;;59.67;30.20;;;;;;;-1.86;84.96;98655.95;1648081;87;21068;-79
2021/11/15 06:09:32;;;;;;;65.60;32.45;;;;;;;-1.82;84.98;98664.72;1669004;85;21025;-78
2021/11/15 06:11:59;;;;;;;65.17;34.55;;;;;;;-1.78;84.60;98662.68;1681078;84;21468;-79
2021/11/15 06:14:25;;;;;;;70.37;35.17;;;;;;;-1.74;84.71;98661.95;1687441;85;21044;-78
2021/11/15 06:16:52;;;;;;;65.15;34.40;;;;;;;-1.73;86.64;98674.09;1676910;85;21018;-78
2021/11/15 06:19:18;;;;;;;71.55;36.65;;;;;;;-1.70;85.10;98675.50;1692004;85;20997;-78
2021/11/15 06:21:45;;;;;;;81.65;40.60;;;;;;;-1.65;84.99;98679.12;1687689;84;21392;-78
2021/11/15 06:24:11;;;;;;;82.72;41.77;;;;;;;-1.59;84.94;98674.51;1692147;84;21416;-78
2021/11/15 06:26:38;;;;;;;85.95;42.17;;;;;;;-1.52;84.99;98681.67;1681563;85;21034;-79
2021/11/15 06:29:05;;;;;;;86.57;42.48;;;;;;;-1.50;85.37;98694.28;1645626;85;21076;-79
2021/11/15 06:31:31;;;;;;;83.27;43.00;;;;;;;-1.47;84.79;98690.48;1676001;84;21399;-78
2021/11/15 06:33:58;;;;;;;82.82;44.45;;;;;;;-1.43;84.89;98696.66;1693978;85;21120;-79
2021/11/15 06:36:24;;;;;;;96.08;46.33;;;;;;;-1.42;85.03;98706.65;1694037;85;21011;-78
2021/11/15 06:38:53;;;;;;;87.57;44.88;;;;;;;-1.39;85.54;98708.02;1694126;85;21028;-78
2021/11/15 06:41:22;;;;;;;95.57;47.60;;;;;;;-1.36;85.24;98710.28;1716470;83;21020;-79
2021/11/15 06:43:49;;;;;;;96.47;49.50;;;;;;;-1.34;85.86;98709.94;1719853;83;21001;-78
2021/11/15 06:46:16;;;;;;;104.90;46.18;;;;;;;-1.29;85.15;98704.85;1721298;83;20989;-79
2021/11/15 06:48:43;;;;;;;94.40;48.08;;;;;;;-1.25;85.40;98713.66;1721225;83;21055;-78
2021/11/15 06:51:11;;;;;;;94.30;48.02;;;;;;;-1.22;85.34;98715.91;1706208;83;21434;-78
2021/11/15 06:53:39;;;;;;;99.07;48.80;;;;;;;-1.15;85.48;98719.58;1699235;83;21067;-78
2021/11/15 06:56:08;;;;;;;96.90;47.93;;;;;;;-1.11;85.40;98721.44;1678757;85;21084;-78
2021/11/15 06:58:35;;;;;;;96.37;47.62;;;;;;;-1.09;85.37;98726.25;1693437;85;21399;-78
2021/11/15 07:01:04;;;;;;;98.42;47.62;;;;;;;-1.04;85.58;98726.81;1674028;84;21001;-78
2021/11/15 07:03:32;;;;;;;100.87;48.23;;;;;;;-1.00;86.03;98718.27;1692992;84;21037;-78
2021/11/15 07:05:59;;;;;;;105.58;50.48;;;;;;;-0.97;85.57;98724.42;1713544;84;21412;-76
2021/11/15 07:08:26;;;;;;;100.90;50.83;;;;;;;-0.90;85.38;98726.79;1713369;84;21108;-78
2021/11/15 07:10:53;;;;;;;103.72;53.60;;;;;;;-0.84;85.41;98735.16;1713916;83;21430;-79
2021/11/15 07:13:20;;;;;;;106.92;54.65;;;;;;;-0.78;85.83;98732.76;1697810;84;21052;-79
2021/11/15 07:15:50;;;;;;;105.83;54.45;;;;;;;-0.73;85.29;98738.08;1691405;84;21042;-78
2021/11/15 07:18:18;;;;;;;109.87;53.58;;;;;;;-0.70;85.30;98737.73;1676614;85;20997;-78
2021/11/15 07:20:44;;;;;;;102.30;51.25;;;;;;;-0.68;85.47;98728.67;1699344;83;21045;-79
2021/11/15 07:23:11;;;;;;;108.10;53.30;;;;;;;-0.64;85.29;98720.52;1706697;83;20973;-79
2021/11/15 07:25:38;;;;;;;96.05;50.40;;;;;;;-0.61;86.20;98729.73;1693400;83;21447;-78
2021/11/15 07:28:06;;;;;;;97.25;48.60;;;;;;;-0.53;85.90;98721.71;1692048;85;21065;-79
2021/11/15 07:30:33;;;;;;;99.75;50.30;;;;;;;-0.49;86.30;98740.48;1692411;83;20998;-79
2021/11/15 07:33:00;;;;;;;96.60;48.78;;;;;;;-0.44;85.78;98728.47;1726353;83;21067;-78
2021/11/15 07:35:27;;;;;;;92.72;46.30;;;;;;;-0.36;86.08;98731.27;1714475;83;21405;-78
2021/11/15 07:37:54;;;;;;;93.72;47.90;;;;;;;-0.30;85.63;98734.03;1709307;84;21023;-78
2021/11/15 07:40:20;;;;;;;90.25;47.17;;;;;;;-0.25;85.52;98735.44;1707668;83;21062;-79
2021/11/15 07:42:47;;;;;;;98.72;47.25;;;;;;;-0.17;85.37;98746.95;1704932;83;21035;-81
2021/11/15 07:45:14;;;;;;;90.22;45.92;;;;;;;-0.10;85.26;98735.37;1711428;83;20973;-81
2021/11/15 07:47:41;;;;;;;98.42;48.17;;;;;;;-0.06;85.29;98753.74;1690533;83;21059;-82
2021/11/15 07:50:11;;;;;;;94.65;47.73;;;;;;;0.02;85.27;98748.72;1702591;83;20988;-81
2021/11/15 07:52:38;;;;;;;93.07;45.92;;;;;;;0.08;85.92;98755.83;1712742;83;21430;-81
2021/11/15 07:55:08;;;;;;;93.82;47.33;;;;;;;0.17;84.96;98754.72;1708759;83;20949;-81
2021/11/15 07:57:38;;;;;;;85.97;46.20;;;;;;;0.25;84.91;98749.28;1698826;84;21179;-78
2021/11/15 08:00:08;;;;;;;84.65;44.58;;;;;;;0.32;85.25;98754.22;1689702;83;20980;-78
2021/11/15 08:02:37;;;;;;;84.67;44.40;;;;;;;0.39;84.88;98744.41;1694497;85;21055;-78
2021/11/15 08:05:05;;;;;;;90.12;44.53;;;;;;;0.50;84.59;98750.30;1701651;84;20999;-80
2021/11/15 08:07:31;;;;;;;86.55;44.55;;;;;;;0.55;84.54;98746.06;1689569;83;21055;-79
2021/11/15 08:10:01;;;;;;;85.55;46.10;;;;;;;0.63;84.53;98744.48;1694293;85;21435;-80
2021/11/15 08:12:36;;;;;;;84.55;43.52;;;;;;;0.74;84.45;98742.53;1655171;86;21056;-81
2021/11/15 08:15:08;;;;;;;89.07;44.20;;;;;;;0.81;84.43;98743.14;1675078;83;21024;-81
2021/11/15 08:17:40;;;;;;;79.67;43.45;;;;;;;0.89;84.42;98739.39;1685051;84;21029;-79
2021/11/15 08:20:17;;;;;;;86.17;44.80;;;;;;;0.95;84.54;98742.57;1692872;85;21076;-79
2021/11/15 08:22:51;;;;;;;78.45;41.33;;;;;;;1.01;84.25;98746.20;1693483;85;21119;-84
2021/11/15 08:25:51;;;;;;;79.53;42.33;;;;;;;1.08;84.23;98743.26;1691310;85;21037;-79
2021/11/15 08:28:19;;;;;;;82.30;43.23;;;;;;;1.15;84.02;98749.08;1675031;85;21482;-81
2021/11/15 08:30:46;;;;;;;83.33;43.95;;;;;;;1.24;83.99;98747.52;1690094;84;21037;-78
2021/11/15 08:33:14;;;;;;;86.53;42.95;;;;;;;1.30;83.83;98742.41;1674874;85;21036;-78
2021/11/15 08:35:41;;;;;;;80.75;43.68;;;;;;;1.36;83.65;98740.35;1665744;86;21547;-78
2021/11/15 08:38:19;;;;;;;89.40;49.10;;;;;;;1.42;83.71;98737.85;1692419;83;21191;-79
2021/11/15 08:40:50;;;;;;;81.45;44.23;;;;;;;1.50;83.66;98737.55;1690439;85;21076;-77
2021/11/15 08:43:22;;;;;;;85.60;44.95;;;;;;;1.61;83.54;98740.38;1692889;85;21470;-78
2021/11/15 08:45:50;;;;;;;83.67;43.38;;;;;;;1.67;83.14;98740.92;1693753;83;21076;-79
2021/11/15 08:48:19;;;;;;;83.90;44.38;;;;;;;1.74;83.06;98735.38;1719582;83;21027;-81
2021/11/15 08:50:46;;;;;;;81.90;43.78;;;;;;;1.82;82.72;98738.58;1698383;83;21041;-80
2021/11/15 08:53:15;;;;;;;76.45;43.25;;;;;;;1.92;82.90;98746.59;1720050;83;21052;-80
2021/11/15 08:55:42;;;;;;;76.42;42.53;;;;;;;2.00;82.55;98742.38;1710612;83;20984;-80
2021/11/15 08:58:09;;;;;;;79.77;43.52;;;;;;;2.07;82.61;98735.08;1704500;83;20973;-78
2021/11/15 09:00:37;;;;;;;83.05;44.45;;;;;;;2.17;82.60;98731.31;1680767;85;21008;-79
2021/11/15 09:03:04;;;;;;;88.95;44.83;;;;;;;2.26;82.45;98728.84;1693854;85;21116;-78
2021/11/15 09:05:31;;;;;;;82.35;44.05;;;;;;;2.36;82.18;98729.84;1693557;85;21079;-77
2021/11/15 09:07:57;;;;;;;83.95;44.03;;;;;;;2.47;82.32;98731.33;1693171;85;21444;-77
2021/11/15 09:10:24;;;;;;;81.63;44.60;;;;;;;2.59;82.08;98730.63;1676469;83;20995;-79
2021/11/15 09:12:50;;;;;;;80.62;44.45;;;;;;;2.70;82.00;98725.11;1693057;85;21538;-78
2021/11/15 09:15:19;;;;;;;75.75;42.38;;;;;;;2.83;81.23;98721.37;1698204;83;20998;-77
2021/11/15 09:17:47;;;;;;;76.80;44.25;;;;;;;2.93;81.83;98718.01;1697956;83;21018;-77
2021/11/15 09:20:17;;;;;;;77.50;42.23;;;;;;;3.06;81.59;98719.48;1693197;83;21048;-79
2021/11/15 09:22:46;;;;;;;81.65;41.68;;;;;;;3.20;81.68;98717.88;1640128;85;21076;-80
2021/11/15 09:25:15;;;;;;;74.42;40.17;;;;;;;3.35;81.37;98702.78;1681272;85;21052;-78
2021/11/15 09:27:43;;;;;;;76.20;41.53;;;;;;;3.55;80.73;98712.18;1666285;86;21036;-78
2021/11/15 09:30:12;;;;;;;72.78;39.78;;;;;;;3.70;81.00;98706.65;1703229;83;21400;-79
2021/11/15 09:32:40;;;;;;;70.32;38.65;;;;;;;3.82;80.60;98699.33;1696093;83;20973;-78
2021/11/15 09:35:09;;;;;;;67.82;38.73;;;;;;;3.96;80.65;98699.44;1700753;84;21061;-77
2021/11/15 09:37:37;;;;;;;85.03;44.55;;;;;;;4.11;79.83;98704.38;1710049;83;21023;-78
2021/11/15 09:40:08;;;;;;;64.27;36.38;;;;;;;4.25;80.07;98708.40;1709804;84;20991;-79
2021/11/15 09:42:36;;;;;;;76.30;36.10;;;;;;;4.38;79.35;98706.32;1713812;84;20994;-76
2021/11/15 09:45:07;;;;;;;66.17;34.95;;;;;;;4.54;78.77;98698.13;1713703;84;21432;-77
2021/11/15 09:47:39;;;;;;;62.60;35.35;;;;;;;4.72;78.90;98696.03;1692865;83;20968;-76
2021/11/15 09:50:10;;;;;;;59.08;32.70;;;;;;;4.88;78.08;98688.22;1677247;84;21081;-77
2021/11/15 09:52:37;;;;;;;65.45;33.92;;;;;;;5.02;78.14;98692.20;1663241;86;21120;-78
2021/11/15 09:55:07;;;;;;;54.77;33.10;;;;;;;5.15;77.99;98689.22;1639415;86;21336;-76
2021/11/15 09:57:38;;;;;;;55.28;33.15;;;;;;;5.31;77.28;98693.20;1680884;84;20992;-76
2021/11/15 10:00:11;;;;;;;60.00;33.58;;;;;;;5.46;75.42;98685.78;1696828;84;21487;-78
2021/11/15 10:02:42;;;;;;;54.85;30.90;;;;;;;5.62;76.74;98687.59;1697012;84;21483;-78
2021/11/15 10:05:10;;;;;;;50.40;29.67;;;;;;;5.76;75.68;98678.39;1696861;83;21486;-76
2021/11/15 10:07:51;;;;;;;44.42;27.50;;;;;;;5.93;74.83;98684.09;1681477;84;21064;-76
2021/11/15 10:10:34;;;;;;;53.95;27.13;;;;;;;6.11;75.49;98685.02;1693600;84;21036;-80
2021/11/15 10:13:21;;;;;;;43.05;24.63;;;;;;;6.31;74.14;98688.50;1686954;84;21198;-79
2021/11/15 10:15:58;;;;;;;43.38;24.50;;;;;;;6.53;73.54;98671.80;1696115;84;21016;-79
2021/11/15 10:18:53;;;;;;;43.45;23.73;;;;;;;6.78;72.23;98686.22;1680372;84;21063;-80
2021/11/15 10:21:42;;;;;;;42.70;23.35;;;;;;;6.95;72.27;98688.36;1696561;84;21064;-81
2021/11/15 10:24:17;;;;;;;41.65;24.18;;;;;;;7.12;71.94;98676.44;1696434;84;21051;-80
2021/11/15 10:26:55;;;;;;;36.10;21.40;;;;;;;7.31;73.08;98672.83;1696806;84;21093;-80
2021/11/15 10:29:37;;;;;;;26.93;16.97;;;;;;;7.61;70.01;98677.05;1696909;84;21084;-77
2021/11/15 10:32:10;;;;;;;31.60;19.42;;;;;;;8.64;71.38;98668.25;1683605;84;21025;-83
2021/11/15 10:34:46;;;;;;;31.90;19.57;;;;;;;10.06;69.18;98655.77;1672849;86;21064;-82
2021/11/15 10:37:29;;;;;;;18.85;10.82;;;;;;;11.34;66.17;98656.86;1665845;85;20976;-81
2021/11/15 10:40:01;;;;;;;20.75;12.60;;;;;;;12.49;61.54;98656.35;1655235;84;21039;-83
2021/11/15 10:42:35;;;;;;;7.53;4.53;;;;;;;13.65;58.84;98660.61;1653723;86;21028;-80
2021/11/15 10:45:12;;;;;;;6.47;3.92;;;;;;;14.42;50.80;98648.34;1667677;84;20964;-80
2021/11/15 10:47:58;;;;;;;7.58;3.72;;;;;;;15.40;53.12;98642.16;1672476;86;21023;-81
2021/11/15 10:50:46;;;;;;;7.58;4.25;;;;;;;16.34;51.56;98642.83;1671320;86;21481;-79
2021/11/15 10:53:26;;;;;;;5.78;3.77;;;;;;;16.96;41.57;98635.69;1682821;85;21039;-80
2021/11/15 10:56:26;;;;;;;6.15;3.83;;;;;;;17.42;45.76;98632.71;1695729;85;21007;-75
2021/11/15 10:58:54;;;;;;;5.70;3.52;;;;;;;18.16;44.23;98633.64;1694669;84;22192;-76
2021/11/15 11:01:34;;;;;;;7.10;4.08;;;;;;;18.77;38.25;98625.63;1644894;85;21164;-76
2021/11/15 11:04:27;;;;;;;7.03;4.08;;;;;;;18.95;39.43;98623.30;1654455;86;21031;-76
2021/11/15 11:07:04;;;;;;;7.92;4.10;;;;;;;19.50;37.50;98631.98;1673174;85;21087;-76
2021/11/15 11:09:40;;;;;;;4.97;3.90;;;;;;;19.89;35.63;98629.78;1672713;86;21035;-76
2021/11/15 11:12:23;;;;;;;5.50;3.92;;;;;;;20.21;37.12;98641.50;1673229;85;21009;-76
2021/11/15 11:14:51;;;;;;;4.95;3.70;;;;;;;20.55;35.08;98637.63;1672647;86;20989;-76
2021/11/15 11:17:17;;;;;;;6.05;4.33;;;;;;;20.87;35.79;98636.66;1672606;86;21055;-77
2021/11/15 11:20:24;;;;;;;5.12;4.08;;;;;;;21.24;34.97;98633.48;1672640;86;21044;-76
2021/11/15 11:27:39;;;;;;;10.50;6.05;;;;;;;21.71;34.74;98630.53;1673955;85;20983;-76
2021/11/15 11:30:09;;;;;;;10.72;4.90;;;;;;;21.70;34.05;98624.72;1672702;86;20984;-77
2021/11/15 11:32:37;;;;;;;5.90;3.90;;;;;;;21.03;33.66;98626.27;1704881;83;21040;-77
2021/11/15 11:35:08;;;;;;;6.17;3.83;;;;;;;20.77;33.57;98640.38;1724692;83;21378;-77
2021/11/15 11:37:35;;;;;;;5.42;3.83;;;;;;;20.46;34.05;98643.57;1714975;83;21079;-77
2021/11/15 11:40:06;;;;;;;5.58;3.92;;;;;;;20.18;32.40;98639.36;1718575;83;20993;-77